Tropical Cyclones
[Index]
Main Index Home Page Stock Weather Photos Extreme Storms Discussion Storm News and Storm Chasing Reports Tropical Cyclones / Hurricanes / Typhoons Weather Data and Links Wild Fires / Bushfires Weather Observation Techniques Weather Picture Catalogue Tornado Pictures and Reports Stock Video Footage and DVDs for sale
Season 1956-1957 Tropical Cyclone 195657_02 Track Map
Season 1956-1957 Summaries: [BoM-AU] [JTWC-AU] [JTWC-SIO] [JTWC-SPAC] [JTWC-SH]
<<- Previous TC | BoM 1956-1957 Season | Next TC ->>

click for intensity scale information  Lat/long Grid: Show Hide

 Date Labels: Show Hide

Bureau of Meteorology Tropical Cyclone Data

Name: 195657_02
Number: 279 / 195657_02

28 Oct 1956 01:00 UTC to 01 Nov 1956 01:00 UTC

    date/time    lat    long    hPa   cat  kts
1956-10-28 01    9.8    97.7   1000                     
1956-10-28 04   10.3    97.0   1000                     
1956-10-28 07   10.8    96.4   1000                     
1956-10-28 10   11.3    95.8   1000                     
1956-10-28 16   12.3    94.6   1000                     
1956-10-28 19   12.8    94.0   1000                     
1956-10-28 22   13.3    93.3   1000                     
1956-10-29 01   13.8    92.7    999                     
1956-10-29 04   14.0    92.8    999                     
1956-10-29 07   14.2    93.0    999                     
1956-10-29 10   14.5    93.1    999                     
1956-10-29 16   15.1    93.4    999                     
1956-10-29 19   15.4    93.5    999                     
1956-10-29 22   15.7    93.6    999                     
1956-10-30 01   16.0    93.7   1000                     
1956-10-30 04   16.1    94.0   1000                     
1956-10-30 07   16.3    94.4   1000                     
1956-10-30 10   16.4    94.7   1000                     
1956-10-30 16   16.7    95.4   1000                     
1956-10-30 19   16.8    95.7   1000                     
1956-10-30 22   16.9    96.0   1000                     
1956-10-31 01   17.0    96.2   1000                     
1956-10-31 04   17.2    96.3   1000                     
1956-10-31 07   17.5    96.4   1001                     
1956-10-31 10   17.8    96.5   1001                     
1956-10-31 16   18.3    96.6   1002                     
1956-10-31 19   18.5    96.7   1003                     
1956-10-31 22   18.7    96.7   1003                     
1956-11-01 01   19.0    96.8   1004                     
Winds are 10-min average.

Tropical cyclone tracks developed by Michael Bath using data from the Bureau of Meteorology and Google Maps.


[Australian Severe Weather index] [Copyright Notice] [Email Contacts] [Search This Site] [Privacy Policy]
Document: tropical_cyclone_195657_02.htm Updated: 30 May 2013